Time;durP1;ratioP1;P1;durP2;ratioP2;P2;SDS_P1;SDS_P2;PMS_P1;PMS_P2;Temp;Humidity;BMP_temperature;BMP_pressure;BME280_temperature;BME280_humidity;BME280_pressure;Samples;Min_cycle;Max_cycle;Signal;HPM_P1;HPM_P2
2022/04/02 00:02:17;;;;;;;0.30;0.30;;;20.60;29.90;;;;;;6286891;27;20040;-42
2022/04/02 00:05:19;;;;;;;0.68;0.30;;;20.70;29.90;;;;;;6279948;28;20047;-44
2022/04/02 00:08:20;;;;;;;0.50;0.30;;;20.60;29.90;;;;;;6279756;27;20039;-43
2022/04/02 00:11:21;;;;;;;;;;;20.50;29.80;;;;;;6284433;27;20040;-41
2022/04/02 00:14:23;;;;;;;0.10;0.10;;;20.60;29.80;;;;;;6280315;27;19930;-44
2022/04/02 00:17:25;;;;;;;0.70;0.32;;;20.60;29.80;;;;;;6287964;28;20047;-43
2022/04/02 00:20:27;;;;;;;0.40;0.20;;;20.50;29.80;;;;;;6275688;28;20116;-44
2022/04/02 00:26:45;;;;;;;0.40;0.20;;;20.50;29.80;;;;;;6279334;28;20040;-42
2022/04/02 00:29:46;;;;;;;0.73;0.20;;;20.60;29.80;;;;;;6278385;28;20788;-41
2022/04/02 00:32:48;;;;;;;;;;;20.50;29.80;;;;;;6285652;28;20074;-41
2022/04/02 00:35:50;;;;;;;0.20;0.17;;;20.50;29.80;;;;;;6293644;27;19934;-42
2022/04/02 00:38:51;;;;;;;;;;;20.50;30.30;;;;;;6276938;28;20043;-41
2022/04/02 00:41:53;;;;;;;0.30;0.20;;;20.40;29.80;;;;;;6280441;28;19931;-42
2022/04/02 00:44:54;;;;;;;0.75;0.38;;;20.40;29.70;;;;;;6298291;28;20060;-42
2022/04/02 00:47:57;;;;;;;0.35;0.20;;;20.50;29.80;;;;;;6298995;27;20040;-41
2022/04/02 00:51:01;;;;;;;0.10;0.10;;;20.40;29.80;;;;;;6265174;28;20160;-42
2022/04/02 00:54:02;;;;;;;0.30;0.13;;;20.50;29.80;;;;;;6267862;28;20040;-43
2022/04/02 00:57:04;;;;;;;0.20;0.20;;;20.50;29.80;;;;;;6297260;27;20042;-43
2022/04/02 01:00:07;;;;;;;0.20;0.10;;;20.50;29.80;;;;;;6292389;28;20057;-42
2022/04/02 01:03:13;;;;;;;0.40;0.20;;;20.40;29.70;;;;;;6261038;28;20052;-42
2022/04/02 01:06:19;;;;;;;0.28;0.20;;;20.40;29.70;;;;;;6276690;28;20713;-41
2022/04/02 01:09:21;;;;;;;0.30;0.20;;;20.40;29.70;;;;;;6271799;28;20051;-42
2022/04/02 01:12:26;;;;;;;0.38;0.20;;;20.40;29.70;;;;;;6274111;27;20931;-41
2022/04/02 01:15:29;;;;;;;0.22;0.17;;;20.40;29.70;;;;;;6277255;28;20787;-43
2022/04/02 01:18:32;;;;;;;0.15;0.13;;;20.30;29.70;;;;;;6278941;28;20058;-46
2022/04/02 01:21:34;;;;;;;0.70;0.20;;;20.40;29.80;;;;;;6264082;28;20051;-43
2022/04/02 01:24:50;;;;;;;0.30;0.20;;;20.40;29.70;;;;;;6253742;28;20063;-41
2022/04/02 01:27:53;;;;;;;0.28;0.20;;;20.40;29.70;;;;;;6298873;27;20040;-41
2022/04/02 01:30:55;;;;;;;0.35;0.20;;;20.40;29.70;;;;;;6279010;28;20051;-41
2022/04/02 01:33:58;;;;;;;0.20;0.20;;;20.40;29.70;;;;;;6295386;28;20035;-43
2022/04/02 01:37:04;;;;;;;0.20;0.20;;;20.30;29.70;;;;;;6278990;27;20035;-42
2022/04/02 01:40:14;;;;;;;0.55;0.20;;;20.40;29.70;;;;;;6299439;27;20988;-44
2022/04/02 01:43:19;;;;;;;0.20;0.10;;;20.40;29.70;;;;;;6301372;27;20047;-43
2022/04/02 01:46:27;;;;;;;0.20;0.20;;;20.40;29.70;;;;;;6297692;27;20928;-42
2022/04/02 01:49:30;;;;;;;0.28;0.20;;;20.40;29.80;;;;;;6292464;28;20986;-42
2022/04/02 01:52:35;;;;;;;0.50;0.17;;;20.40;29.70;;;;;;6285065;27;20027;-42
2022/04/02 01:55:39;;;;;;;0.10;0.10;;;20.30;29.70;;;;;;6289141;27;21240;-43
2022/04/02 01:58:59;;;;;;;0.20;0.10;;;20.30;29.70;;;;;;6294788;28;20047;-43
2022/04/02 02:02:04;;;;;;;0.25;0.20;;;20.30;29.70;;;;;;6298247;28;20116;-42
2022/04/02 02:05:07;;;;;;;0.30;0.10;;;20.30;29.70;;;;;;6278115;28;22019;-41
2022/04/02 02:08:09;;;;;;;0.20;0.15;;;20.30;29.70;;;;;;6277320;27;20036;-44
2022/04/02 02:11:21;;;;;;;0.17;0.10;;;20.30;29.70;;;;;;6302065;27;20082;-43
2022/04/02 02:14:37;;;;;;;0.20;0.20;;;20.30;29.70;;;;;;6265461;28;20154;-41
2022/04/02 02:17:51;;;;;;;0.32;0.25;;;20.30;29.70;;;;;;6281599;28;21655;-43
2022/04/02 02:20:53;;;;;;;0.20;0.17;;;20.40;29.80;;;;;;6289705;28;20928;-41
2022/04/02 02:23:54;;;;;;;0.28;0.10;;;20.30;29.70;;;;;;6286089;28;20039;-42
2022/04/02 02:26:57;;;;;;;0.28;0.13;;;20.60;29.80;;;;;;6282727;27;20047;-41
2022/04/02 02:30:07;;;;;;;0.10;0.10;;;20.30;29.70;;;;;;6290107;27;20043;-43
2022/04/02 02:36:26;;;;;;;0.20;0.15;;;20.30;29.80;;;;;;6280073;27;20348;-42
2022/04/02 02:39:38;;;;;;;0.47;0.20;;;20.30;29.70;;;;;;6268751;28;20043;-42
2022/04/02 02:42:50;;;;;;;0.20;0.20;;;20.30;29.70;;;;;;6267502;28;20427;-41
2022/04/02 02:46:03;;;;;;;0.10;0.10;;;20.10;29.70;;;;;;6256034;28;20239;-41
2022/04/02 02:49:06;;;;;;;0.10;0.10;;;20.30;29.70;;;;;;6283186;27;20681;-41
2022/04/02 02:52:08;;;;;;;0.15;0.10;;;20.20;29.70;;;;;;6262871;28;20047;-42
2022/04/02 02:55:10;;;;;;;0.10;0.10;;;20.20;29.70;;;;;;6286049;27;20039;-41
2022/04/02 02:58:13;;;;;;;0.20;0.20;;;20.20;29.70;;;;;;6283826;27;20044;-42
2022/04/02 03:01:16;;;;;;;0.30;0.20;;;20.20;29.70;;;;;;6282087;27;20524;-42
2022/04/02 03:04:19;;;;;;;0.10;0.10;;;20.20;29.70;;;;;;6277257;28;20048;-42
2022/04/02 03:07:25;;;;;;;0.10;0.10;;;20.20;29.70;;;;;;6260555;28;20048;-42
2022/04/02 03:10:28;;;;;;;0.22;0.20;;;20.10;29.70;;;;;;6289963;27;20146;-44
2022/04/02 03:13:31;;;;;;;0.32;0.20;;;20.20;29.70;;;;;;6245137;28;20532;-43
2022/04/02 03:16:39;;;;;;;0.28;0.20;;;20.20;29.70;;;;;;6274249;28;20054;-43
2022/04/02 03:19:45;;;;;;;0.20;0.13;;;20.20;29.70;;;;;;6267371;28;20048;-41
2022/04/02 03:22:50;;;;;;;0.20;0.10;;;20.20;29.70;;;;;;6267253;28;20304;-43
2022/04/02 03:25:52;;;;;;;0.50;0.30;;;20.20;29.70;;;;;;6264929;28;20055;-41
2022/04/02 03:28:55;;;;;;;0.20;0.20;;;20.10;29.70;;;;;;6285669;27;20466;-45
2022/04/02 03:32:00;;;;;;;0.10;0.10;;;20.20;29.70;;;;;;6269173;28;20036;-43
2022/04/02 03:35:06;;;;;;;0.20;0.20;;;20.20;29.80;;;;;;6278118;27;20259;-42
2022/04/02 03:38:08;;;;;;;0.55;0.25;;;20.10;29.70;;;;;;6272628;27;20047;-44
2022/04/02 03:41:13;;;;;;;0.20;0.10;;;20.20;29.70;;;;;;6286388;27;20035;-42
2022/04/02 03:44:16;;;;;;;0.15;0.10;;;20.00;29.70;;;;;;6269767;27;20142;-41
2022/04/02 03:47:22;;;;;;;0.17;0.10;;;20.10;29.70;;;;;;6267411;27;20136;-41
2022/04/02 03:50:27;;;;;;;0.38;0.13;;;20.20;29.80;;;;;;6287930;28;20140;-41
2022/04/02 03:53:32;;;;;;;0.20;0.10;;;20.00;29.70;;;;;;6274663;28;20052;-41
2022/04/02 03:56:37;;;;;;;0.10;0.10;;;20.10;29.90;;;;;;6252765;27;20205;-41
2022/04/02 03:59:46;;;;;;;0.20;0.20;;;20.20;29.80;;;;;;6264492;28;20503;-43
2022/04/02 04:02:51;;;;;;;0.25;0.10;;;20.10;29.80;;;;;;6284459;28;20823;-42
2022/04/02 04:06:01;;;;;;;0.35;0.20;;;20.20;29.80;;;;;;6274012;28;20059;-42
2022/04/02 04:09:04;;;;;;;0.35;0.20;;;20.10;29.80;;;;;;6283015;28;20729;-42
2022/04/02 04:12:08;;;;;;;0.10;0.10;;;20.10;29.80;;;;;;6259880;28;20049;-42
2022/04/02 04:15:14;;;;;;;0.20;0.17;;;20.10;29.80;;;;;;6254267;28;21383;-41
2022/04/02 04:18:15;;;;;;;0.10;0.10;;;20.00;29.80;;;;;;6265196;28;20566;-43
2022/04/02 04:21:18;;;;;;;0.60;0.10;;;20.10;29.90;;;;;;6264452;28;20487;-41
2022/04/02 04:24:24;;;;;;;0.10;0.10;;;20.10;29.90;;;;;;6275273;27;20833;-42
2022/04/02 04:27:26;;;;;;;0.80;0.10;;;20.00;29.90;;;;;;6269125;27;20351;-43
2022/04/02 04:30:28;;;;;;;;;;;20.00;29.90;;;;;;6277026;27;20050;-41
2022/04/02 04:33:31;;;;;;;0.20;0.20;;;19.90;29.90;;;;;;6276497;28;19967;-43
2022/04/02 04:36:33;;;;;;;0.20;0.10;;;20.10;29.90;;;;;;6269276;27;20063;-43
2022/04/02 04:39:37;;;;;;;0.20;0.20;;;20.00;29.90;;;;;;6250285;28;20854;-42
2022/04/02 04:42:40;;;;;;;0.15;0.10;;;20.00;29.90;;;;;;6287340;28;20331;-41
2022/04/02 04:45:44;;;;;;;0.10;0.10;;;20.10;30.00;;;;;;6273967;28;20047;-41
2022/04/02 04:48:48;;;;;;;0.13;0.13;;;20.00;30.00;;;;;;6282171;28;20061;-43
2022/04/02 04:51:51;;;;;;;0.22;0.10;;;20.00;30.00;;;;;;6286505;27;20126;-41
2022/04/02 04:54:53;;;;;;;0.10;0.10;;;20.00;30.00;;;;;;6278348;28;20464;-42
2022/04/02 04:57:55;;;;;;;0.00;0.00;;;20.00;30.00;;;;;;6282718;27;20078;-43
2022/04/02 05:01:01;;;;;;;0.20;0.17;;;20.00;30.00;;;;;;6286193;27;20037;-43
2022/04/02 05:04:06;;;;;;;0.20;0.20;;;20.00;30.00;;;;;;6283310;28;20138;-42
2022/04/02 05:07:09;;;;;;;1.38;0.20;;;19.90;30.00;;;;;;6270718;27;20051;-41
2022/04/02 05:10:12;;;;;;;0.17;0.10;;;20.00;30.00;;;;;;6278973;28;20227;-42
2022/04/02 05:13:15;;;;;;;0.10;0.10;;;20.00;30.10;;;;;;6249067;27;20040;-42
2022/04/02 05:16:23;;;;;;;0.20;0.20;;;20.00;30.10;;;;;;6274424;27;20921;-43
2022/04/02 05:19:27;;;;;;;0.10;0.10;;;19.90;30.10;;;;;;6268463;28;20031;-42
2022/04/02 05:22:31;;;;;;;0.10;0.10;;;19.90;30.10;;;;;;6293953;27;20061;-42
2022/04/02 05:25:33;;;;;;;0.10;0.10;;;19.90;30.10;;;;;;6262889;27;20032;-43
2022/04/02 05:28:35;;;;;;;0.50;0.20;;;19.90;30.20;;;;;;6253695;28;20035;-41
2022/04/02 05:31:37;;;;;;;0.17;0.13;;;19.90;30.20;;;;;;6279901;27;20062;-41
2022/04/02 05:34:39;;;;;;;0.30;0.20;;;20.00;30.30;;;;;;6279733;28;20271;-42
2022/04/02 05:37:44;;;;;;;0.25;0.20;;;19.90;30.30;;;;;;6270100;27;20335;-41
2022/04/02 05:40:46;;;;;;;0.57;0.20;;;19.90;30.30;;;;;;6288834;27;20153;-41
2022/04/02 05:43:48;;;;;;;0.20;0.15;;;19.80;30.20;;;;;;6281778;28;20086;-41
2022/04/02 05:46:51;;;;;;;0.15;0.15;;;19.80;30.30;;;;;;6255148;28;20180;-43
2022/04/02 05:50:13;;;;;;;0.30;0.20;;;20.00;30.40;;;;;;6241284;28;20058;-41
2022/04/02 05:53:35;;;;;;;0.30;0.20;;;19.80;30.30;;;;;;6260196;28;20405;-42
2022/04/02 05:56:37;;;;;;;0.20;0.20;;;19.90;30.30;;;;;;6268496;28;20841;-40
2022/04/02 05:59:40;;;;;;;0.10;0.10;;;19.80;30.30;;;;;;6269468;28;20048;-44
2022/04/02 06:02:43;;;;;;;0.10;0.10;;;19.80;30.30;;;;;;6277374;27;20203;-43
2022/04/02 06:05:44;;;;;;;0.25;0.22;;;19.90;30.70;;;;;;6266172;28;20040;-43
2022/04/02 06:08:46;;;;;;;;;;;19.90;30.40;;;;;;6275338;28;20031;-42
2022/04/02 06:11:47;;;;;;;0.20;0.20;;;19.60;30.30;;;;;;6286823;27;19923;-42
2022/04/02 06:14:49;;;;;;;0.20;0.20;;;19.80;30.30;;;;;;6253291;28;20043;-41
2022/04/02 06:17:51;;;;;;;;;;;19.80;30.40;;;;;;6268246;28;20180;-40
2022/04/02 06:20:53;;;;;;;0.17;0.10;;;19.80;30.40;;;;;;6267056;28;20734;-42
2022/04/02 06:23:54;;;;;;;;;;;19.80;30.40;;;;;;6267315;27;20370;-41
2022/04/02 06:26:56;;;;;;;1.55;0.28;;;19.80;30.40;;;;;;6254770;27;19985;-42
2022/04/02 06:29:58;;;;;;;0.17;0.13;;;19.80;30.40;;;;;;6275220;27;20245;-42
2022/04/02 06:33:00;;;;;;;0.93;0.20;;;19.70;30.40;;;;;;6283040;27;20613;-41
2022/04/02 06:36:02;;;;;;;0.38;0.20;;;19.70;30.40;;;;;;6245788;27;21102;-42
2022/04/02 06:39:04;;;;;;;0.73;0.20;;;19.80;30.50;;;;;;6268551;28;20500;-42
2022/04/02 06:42:06;;;;;;;0.52;0.22;;;19.80;30.50;;;;;;6272249;27;20410;-43
2022/04/02 06:45:15;;;;;;;0.50;0.20;;;19.80;30.50;;;;;;6266742;28;20405;-42
2022/04/02 06:48:17;;;;;;;;;;;19.80;30.50;;;;;;6265812;28;20433;-40
2022/04/02 06:51:20;;;;;;;0.70;0.40;;;19.80;30.60;;;;;;6278894;27;19970;-41
2022/04/02 06:54:21;;;;;;;0.30;0.20;;;19.90;30.60;;;;;;6270719;28;20065;-43
2022/04/02 06:57:23;;;;;;;;;;;19.80;30.50;;;;;;6277942;27;20106;-43
2022/04/02 07:00:25;;;;;;;;;;;19.80;30.60;;;;;;6258773;28;20358;-42
2022/04/02 07:03:27;;;;;;;0.60;0.22;;;19.90;30.60;;;;;;6283209;27;19931;-41
2022/04/02 07:06:29;;;;;;;0.32;0.20;;;19.80;30.50;;;;;;6242688;28;20739;-42
2022/04/02 07:09:30;;;;;;;0.70;0.28;;;19.80;30.50;;;;;;6262279;28;20082;-43
2022/04/02 07:12:32;;;;;;;;;;;19.90;30.60;;;;;;6266299;28;20497;-41
2022/04/02 07:15:33;;;;;;;0.20;0.17;;;19.80;30.60;;;;;;6261378;27;20047;-42
2022/04/02 07:18:41;;;;;;;;;;;19.80;30.60;;;;;;6273162;27;20044;-41
2022/04/02 07:21:43;;;;;;;0.77;0.25;;;19.80;30.60;;;;;;6258799;28;19928;-42
2022/04/02 07:24:45;;;;;;;0.98;0.40;;;19.90;30.60;;;;;;6285860;27;20261;-42
2022/04/02 07:27:47;;;;;;;0.93;0.30;;;19.80;30.60;;;;;;6274126;27;20241;-42
2022/04/02 07:30:48;;;;;;;0.57;0.17;;;19.80;30.60;;;;;;6267027;27;20043;-41
2022/04/02 07:33:57;;;;;;;0.20;0.20;;;19.90;30.70;;;;;;6267030;28;20078;-41
2022/04/02 07:37:05;;;;;;;0.85;0.30;;;19.70;30.60;;;;;;6253651;28;20197;-44
2022/04/02 07:40:12;;;;;;;0.47;0.30;;;19.70;30.60;;;;;;6290304;27;20159;-41
2022/04/02 07:43:22;;;;;;;0.43;0.20;;;19.90;30.60;;;;;;6258507;28;20050;-41
2022/04/02 07:46:28;;;;;;;0.57;0.30;;;19.90;30.70;;;;;;6270862;28;20793;-42
2022/04/02 07:49:30;;;;;;;0.28;0.20;;;19.90;30.60;;;;;;6274544;28;20205;-42
2022/04/02 07:52:32;;;;;;;0.25;0.15;;;20.00;30.80;;;;;;6286803;27;20051;-41
2022/04/02 07:55:41;;;;;;;0.20;0.20;;;19.70;30.60;;;;;;6293553;27;20378;-41
2022/04/02 07:58:46;;;;;;;0.13;0.10;;;20.00;30.70;;;;;;6288865;27;20039;-42
2022/04/02 08:01:49;;;;;;;0.30;0.20;;;19.90;30.60;;;;;;6269218;28;20173;-42
2022/04/02 08:04:53;;;;;;;0.52;0.30;;;20.00;30.60;;;;;;6274513;28;20621;-43
2022/04/02 08:07:55;;;;;;;0.40;0.10;;;20.00;30.70;;;;;;6256402;28;23697;-43
2022/04/02 08:11:03;;;;;;;0.50;0.20;;;20.00;30.70;;;;;;6273112;27;20293;-41
2022/04/02 08:14:05;;;;;;;;;;;19.90;30.60;;;;;;6283707;27;20072;-44
2022/04/02 08:17:08;;;;;;;0.95;0.30;;;20.00;30.60;;;;;;6235873;28;19924;-41
2022/04/02 08:20:11;;;;;;;0.63;0.20;;;20.20;30.60;;;;;;6251388;27;20039;-41
2022/04/02 08:23:13;;;;;;;0.20;0.20;;;20.10;30.60;;;;;;6284495;27;20089;-42
2022/04/02 08:26:24;;;;;;;0.55;0.30;;;20.10;30.50;;;;;;6264912;27;20618;-41
2022/04/02 08:29:36;;;;;;;0.20;0.17;;;20.20;30.60;;;;;;6268327;28;20282;-42
2022/04/02 08:32:52;;;;;;;0.40;0.20;;;20.20;30.50;;;;;;6253012;28;20787;-41
2022/04/02 08:36:02;;;;;;;0.22;0.20;;;20.20;30.50;;;;;;6264536;28;20465;-41
2022/04/02 08:39:05;;;;;;;0.10;0.10;;;20.20;30.40;;;;;;6271692;27;20075;-41
2022/04/02 08:42:30;;;;;;;0.22;0.22;;;20.30;30.40;;;;;;6255979;28;20138;-43
2022/04/02 08:45:33;;;;;;;0.20;0.20;;;20.30;30.40;;;;;;6278779;28;20089;-41
2022/04/02 08:48:35;;;;;;;0.40;0.38;;;20.40;30.40;;;;;;6264430;28;20213;-45
2022/04/02 08:51:42;;;;;;;0.60;0.30;;;20.40;30.30;;;;;;6279497;27;20047;-42
2022/04/02 08:54:57;;;;;;;0.13;0.10;;;20.50;30.30;;;;;;6249775;28;20276;-42
2022/04/02 08:58:10;;;;;;;0.20;0.15;;;20.50;30.30;;;;;;6261384;27;20280;-41
2022/04/02 09:01:19;;;;;;;0.40;0.20;;;20.40;30.10;;;;;;6269496;27;20602;-43
2022/04/02 09:04:48;;;;;;;0.28;0.20;;;20.60;30.20;;;;;;6271443;28;20357;-42
2022/04/02 09:08:18;;;;;;;0.20;0.20;;;20.70;30.20;;;;;;6264615;27;20895;-43
2022/04/02 09:11:24;;;;;;;0.20;0.10;;;20.70;30.10;;;;;;6281223;27;20046;-43
2022/04/02 09:14:54;;;;;;;0.25;0.20;;;20.70;30.10;;;;;;6286753;27;20137;-41
2022/04/02 09:18:11;;;;;;;0.22;0.20;;;20.70;30.00;;;;;;6252860;28;20043;-41
2022/04/02 09:21:29;;;;;;;0.45;0.13;;;20.60;30.00;;;;;;6245699;28;20196;-44
2022/04/02 09:25:00;;;;;;;0.40;0.20;;;20.80;30.00;;;;;;6242267;28;20603;-41
2022/04/02 09:28:30;;;;;;;0.15;0.15;;;20.80;30.00;;;;;;6246726;28;20566;-43
2022/04/02 09:32:08;;;;;;;0.15;0.13;;;20.80;29.90;;;;;;6281061;27;20522;-41
2022/04/02 09:35:35;;;;;;;0.10;0.10;;;20.80;29.90;;;;;;6279945;27;20289;-44
2022/04/02 09:38:53;;;;;;;0.17;0.17;;;20.70;29.80;;;;;;6263168;28;20627;-41
2022/04/02 09:42:09;;;;;;;0.10;0.10;;;20.90;29.80;;;;;;6261119;28;20883;-41
2022/04/02 09:45:13;;;;;;;0.17;0.10;;;20.90;29.70;;;;;;6270869;28;20156;-44
2022/04/02 09:48:22;;;;;;;0.20;0.10;;;20.90;29.70;;;;;;6266516;27;20107;-41
2022/04/02 09:51:31;;;;;;;0.10;0.10;;;20.90;29.60;;;;;;6284459;27;20733;-43
2022/04/02 09:54:38;;;;;;;0.50;0.20;;;20.90;29.50;;;;;;6286737;27;20459;-41
2022/04/02 09:58:01;;;;;;;0.10;0.10;;;21.00;29.40;;;;;;6227026;28;20066;-41
2022/04/02 10:01:05;;;;;;;0.20;0.20;;;21.10;29.30;;;;;;6271459;27;20052;-41
2022/04/02 10:04:30;;;;;;;0.43;0.00;;;21.10;29.30;;;;;;6252874;28;20303;-43
2022/04/02 10:07:40;;;;;;;0.25;0.15;;;21.10;29.20;;;;;;6229906;28;20114;-41
2022/04/02 10:10:43;;;;;;;0.10;0.10;;;21.10;29.10;;;;;;6266716;28;20055;-43
2022/04/02 10:13:45;;;;;;;0.10;0.10;;;21.00;29.00;;;;;;6279303;27;21227;-41
2022/04/02 10:16:50;;;;;;;0.30;0.20;;;21.10;29.00;;;;;;6263989;27;20514;-43
2022/04/02 10:19:55;;;;;;;0.32;0.15;;;21.10;28.90;;;;;;6244892;28;20079;-45
2022/04/02 10:23:02;;;;;;;0.20;0.17;;;21.20;28.90;;;;;;6275479;27;20607;-43
2022/04/02 10:26:14;;;;;;;0.20;0.10;;;21.20;28.80;;;;;;6229940;28;20367;-43
2022/04/02 10:29:24;;;;;;;0.47;0.10;;;21.30;28.80;;;;;;6271846;27;20075;-43
2022/04/02 10:32:34;;;;;;;0.10;0.00;;;21.20;28.60;;;;;;6270293;27;20421;-42
2022/04/02 10:35:38;;;;;;;0.20;0.20;;;21.30;28.60;;;;;;6275357;27;20040;-41
2022/04/02 10:38:43;;;;;;;0.20;0.10;;;21.30;28.50;;;;;;6262820;28;20617;-42
2022/04/02 10:41:47;;;;;;;0.10;0.10;;;21.30;28.40;;;;;;6263711;28;20368;-43
2022/04/02 10:44:59;;;;;;;0.20;0.10;;;21.40;28.40;;;;;;6246300;28;20118;-43
2022/04/02 10:48:09;;;;;;;0.10;0.10;;;21.40;28.30;;;;;;6246267;27;20069;-43
2022/04/02 10:51:12;;;;;;;0.20;0.00;;;21.40;28.30;;;;;;6282009;27;20051;-44
2022/04/02 10:54:20;;;;;;;0.30;0.10;;;21.50;28.30;;;;;;6285632;27;20031;-41
2022/04/02 10:57:21;;;;;;;0.52;0.10;;;21.40;28.20;;;;;;6252615;27;20044;-44
2022/04/02 11:00:26;;;;;;;0.35;0.10;;;21.50;28.20;;;;;;6251797;28;20055;-42
2022/04/02 11:03:36;;;;;;;0.10;0.10;;;21.30;28.50;;;;;;6248052;28;20353;-41
2022/04/02 11:06:45;;;;;;;0.20;0.20;;;21.50;28.00;;;;;;6223175;28;20267;-42
2022/04/02 11:09:52;;;;;;;0.43;0.15;;;21.50;28.00;;;;;;6269627;28;20657;-43
2022/04/02 11:13:00;;;;;;;0.15;0.10;;;21.60;27.90;;;;;;6274835;27;20043;-42
2022/04/02 11:16:03;;;;;;;0.10;0.10;;;21.60;27.90;;;;;;6266013;27;20725;-41
2022/04/02 11:22:27;;;;;;;0.00;0.00;;;21.60;28.00;;;;;;6270395;28;20143;-44
2022/04/02 11:25:35;;;;;;;0.10;0.10;;;21.50;27.60;;;;;;6278342;28;20334;-43
2022/04/02 11:28:42;;;;;;;0.10;0.10;;;21.60;27.60;;;;;;6283417;27;20247;-43
2022/04/02 11:31:46;;;;;;;0.10;0.10;;;21.60;27.50;;;;;;6283256;27;20062;-44
2022/04/02 11:34:50;;;;;;;0.20;0.10;;;21.70;27.50;;;;;;6263200;27;20078;-44
2022/04/02 11:38:02;;;;;;;0.00;0.00;;;21.60;27.40;;;;;;6233609;28;20820;-42
2022/04/02 11:41:15;;;;;;;0.57;0.10;;;21.60;27.30;;;;;;6248339;28;20066;-43
2022/04/02 11:44:17;;;;;;;0.10;0.10;;;21.60;27.20;;;;;;6265153;28;20582;-42
2022/04/02 11:47:27;;;;;;;0.38;0.00;;;21.70;27.20;;;;;;6262269;27;20791;-42
2022/04/02 11:50:31;;;;;;;0.20;0.20;;;21.80;27.20;;;;;;6285872;27;20408;-43
2022/04/02 11:53:38;;;;;;;0.10;0.10;;;21.70;27.10;;;;;;6266608;27;20107;-42
2022/04/02 11:56:43;;;;;;;0.15;0.10;;;21.80;27.10;;;;;;6242590;28;20502;-41
2022/04/02 11:59:51;;;;;;;0.10;0.10;;;21.80;27.00;;;;;;6250937;28;20151;-44
2022/04/02 12:02:53;;;;;;;0.00;0.00;;;21.80;27.00;;;;;;6246909;28;20455;-41
2022/04/02 12:05:55;;;;;;;0.10;0.10;;;21.80;26.90;;;;;;6244889;27;20171;-42
2022/04/02 12:08:57;;;;;;;0.10;0.10;;;21.80;26.80;;;;;;6273067;27;20683;-42
2022/04/02 12:11:59;;;;;;;;;;;21.80;26.80;;;;;;6270252;27;20157;-42
2022/04/02 12:15:11;;;;;;;0.00;0.00;;;21.70;26.70;;;;;;6235512;27;20461;-42
2022/04/02 12:18:14;;;;;;;0.30;0.20;;;21.80;26.70;;;;;;6239481;27;20082;-42
2022/04/02 12:21:16;;;;;;;0.10;0.10;;;21.80;26.70;;;;;;6264015;27;20920;-42
2022/04/02 12:24:18;;;;;;;0.10;0.03;;;21.90;26.60;;;;;;6275401;27;20324;-42
2022/04/02 12:27:21;;;;;;;0.10;0.10;;;21.90;26.60;;;;;;6255451;28;20771;-43
2022/04/02 12:30:23;;;;;;;0.00;0.00;;;21.90;26.50;;;;;;6267372;27;20559;-41
2022/04/02 12:33:26;;;;;;;0.38;0.10;;;21.70;26.30;;;;;;6285852;27;20309;-41
2022/04/02 12:36:31;;;;;;;0.10;0.10;;;21.90;26.30;;;;;;6249413;28;20044;-41
2022/04/02 12:39:34;;;;;;;0.10;0.10;;;22.00;26.30;;;;;;6250357;28;20032;-43
2022/04/02 12:42:37;;;;;;;0.10;0.10;;;22.00;26.30;;;;;;6293064;27;20051;-45
2022/04/02 12:45:39;;;;;;;0.10;0.10;;;22.00;26.20;;;;;;6263363;27;21649;-42
2022/04/02 12:48:43;;;;;;;0.20;0.10;;;21.90;26.10;;;;;;6252258;28;20876;-41
2022/04/02 12:51:45;;;;;;;0.00;0.00;;;21.90;26.10;;;;;;6254011;28;20351;-42
2022/04/02 12:54:50;;;;;;;0.00;0.00;;;22.00;26.10;;;;;;6256501;27;20899;-41
2022/04/02 12:57:59;;;;;;;0.00;0.00;;;21.90;26.00;;;;;;6222873;28;20035;-43
2022/04/02 13:01:13;;;;;;;0.10;0.10;;;22.10;26.10;;;;;;6239450;28;20421;-42
2022/04/02 13:04:16;;;;;;;0.10;0.10;;;22.10;26.00;;;;;;6272483;27;20112;-44
2022/04/02 13:07:20;;;;;;;0.10;0.10;;;22.10;26.00;;;;;;6243622;27;20760;-43
2022/04/02 13:10:22;;;;;;;0.35;0.20;;;22.00;26.00;;;;;;6228800;28;20150;-41
2022/04/02 13:13:39;;;;;;;0.13;0.10;;;22.10;26.00;;;;;;6271708;27;20800;-44
2022/04/02 13:16:42;;;;;;;0.08;0.00;;;22.10;26.00;;;;;;6238286;27;20362;-41
2022/04/02 13:23:07;;;;;;;0.03;0.03;;;22.10;26.00;;;;;;6256782;28;20420;-43
2022/04/02 13:26:13;;;;;;;0.15;0.10;;;22.20;26.00;;;;;;6257625;28;20075;-42
2022/04/02 13:29:27;;;;;;;0.30;0.20;;;22.20;26.00;;;;;;6240350;28;20121;-43
2022/04/02 13:32:48;;;;;;;0.20;0.10;;;22.10;25.90;;;;;;6272775;27;20482;-42
2022/04/02 13:35:54;;;;;;;0.10;0.10;;;22.20;25.90;;;;;;6278688;27;20470;-42
2022/04/02 13:38:59;;;;;;;0.20;0.10;;;22.20;25.90;;;;;;6246363;28;20052;-41
2022/04/02 13:42:06;;;;;;;0.10;0.10;;;22.20;25.90;;;;;;6262904;27;20117;-43
2022/04/02 13:45:12;;;;;;;0.17;0.10;;;22.20;25.90;;;;;;6243039;28;20447;-42
2022/04/02 13:48:19;;;;;;;0.20;0.10;;;22.10;25.90;;;;;;6229255;28;20056;-45
2022/04/02 13:51:34;;;;;;;0.10;0.10;;;22.20;25.90;;;;;;6270138;27;20492;-44
2022/04/02 13:54:57;;;;;;;0.00;0.00;;;22.30;26.00;;;;;;6269485;27;20696;-41
2022/04/02 13:58:03;;;;;;;0.10;0.10;;;22.20;26.00;;;;;;6237725;27;20044;-42
2022/04/02 14:01:08;;;;;;;0.13;0.10;;;22.30;26.00;;;;;;6237517;28;20058;-43
2022/04/02 14:04:12;;;;;;;0.10;0.10;;;22.30;26.10;;;;;;6246992;27;20987;-42
2022/04/02 14:07:21;;;;;;;0.17;0.17;;;22.30;26.20;;;;;;6243969;27;20488;-42
2022/04/02 14:10:23;;;;;;;0.08;0.08;;;22.20;26.20;;;;;;6259399;27;20035;-41
2022/04/02 14:13:29;;;;;;;0.10;0.10;;;22.30;26.30;;;;;;6268507;27;20287;-41
2022/04/02 14:16:32;;;;;;;0.20;0.10;;;22.20;26.20;;;;;;6220281;28;20233;-41
2022/04/02 14:19:46;;;;;;;0.22;0.15;;;22.30;26.30;;;;;;6234653;28;20448;-44
2022/04/02 14:23:03;;;;;;;0.10;0.10;;;22.40;26.40;;;;;;6273117;27;20138;-42
2022/04/02 14:26:30;;;;;;;0.10;0.10;;;22.20;26.30;;;;;;6250038;27;20157;-41
2022/04/02 14:29:50;;;;;;;0.10;0.10;;;22.40;26.40;;;;;;6255578;28;20293;-41
2022/04/02 14:33:25;;;;;;;0.10;0.10;;;22.30;26.40;;;;;;6258221;27;20430;-41
2022/04/02 14:36:54;;;;;;;0.10;0.10;;;22.30;26.40;;;;;;6238369;27;20609;-43
2022/04/02 14:40:13;;;;;;;0.10;0.10;;;22.30;26.50;;;;;;6244424;28;20387;-43
2022/04/02 14:43:38;;;;;;;0.10;0.10;;;22.40;26.60;;;;;;6246541;28;20262;-43
2022/04/02 14:47:05;;;;;;;0.00;0.00;;;22.30;27.10;;;;;;6232233;28;20214;-42
2022/04/02 14:50:35;;;;;;;0.10;0.10;;;22.30;26.60;;;;;;6254713;28;20188;-42
2022/04/02 14:54:05;;;;;;;0.85;0.00;;;22.20;27.20;;;;;;6248882;28;20221;-41
2022/04/02 14:57:33;;;;;;;0.10;0.05;;;22.30;26.80;;;;;;6245983;27;20387;-42
2022/04/02 15:00:58;;;;;;;0.10;0.05;;;22.30;26.90;;;;;;6252514;28;20059;-42
2022/04/02 15:04:21;;;;;;;0.10;0.10;;;22.30;26.90;;;;;;6274416;27;20865;-41
2022/04/02 15:07:58;;;;;;;0.00;0.00;;;22.40;27.00;;;;;;6233596;27;20302;-44
2022/04/02 15:11:00;;;;;;;0.10;0.10;;;22.30;27.00;;;;;;6232030;28;20309;-43
2022/04/02 15:14:10;;;;;;;0.10;0.10;;;22.40;27.00;;;;;;6261633;27;20706;-43
2022/04/02 15:17:24;;;;;;;0.10;0.10;;;22.30;27.00;;;;;;6221503;28;20184;-42
2022/04/02 15:20:28;;;;;;;0.22;0.10;;;22.40;27.00;;;;;;6235677;28;20279;-42
2022/04/02 15:23:30;;;;;;;0.10;0.10;;;22.30;27.00;;;;;;6253960;28;20126;-41
2022/04/02 15:26:44;;;;;;;0.25;0.10;;;22.30;27.00;;;;;;6232263;28;20801;-42
2022/04/02 15:29:47;;;;;;;0.10;0.10;;;22.30;27.10;;;;;;6249282;27;20332;-42
2022/04/02 15:33:12;;;;;;;0.10;0.10;;;22.40;27.10;;;;;;6228260;27;20039;-43
2022/04/02 15:36:15;;;;;;;0.10;0.10;;;22.40;27.00;;;;;;6242684;27;20150;-44
2022/04/02 15:39:41;;;;;;;0.30;0.10;;;22.40;27.00;;;;;;6257868;27;20412;-45
2022/04/02 15:42:44;;;;;;;0.20;0.20;;;22.30;26.90;;;;;;6252038;28;20043;-45
2022/04/02 15:45:46;;;;;;;0.20;0.10;;;22.40;26.90;;;;;;6229205;28;20342;-44
2022/04/02 15:49:16;;;;;;;0.10;0.10;;;22.50;26.90;;;;;;6257374;27;20455;-41
2022/04/02 15:52:19;;;;;;;0.15;0.03;;;22.40;26.90;;;;;;6260617;27;20031;-45
2022/04/02 15:55:22;;;;;;;0.10;0.10;;;22.40;26.90;;;;;;6237911;28;20151;-42
2022/04/02 15:58:28;;;;;;;0.17;0.17;;;22.40;26.80;;;;;;6239957;28;20269;-42
2022/04/02 16:01:38;;;;;;;0.13;0.10;;;22.30;26.70;;;;;;6253141;27;20459;-44
2022/04/02 16:05:07;;;;;;;0.10;0.00;;;22.40;26.60;;;;;;6259394;28;20123;-42
2022/04/02 16:08:20;;;;;;;0.03;0.03;;;22.40;26.50;;;;;;6239012;27;20872;-42
2022/04/02 16:11:31;;;;;;;0.10;0.10;;;22.50;26.60;;;;;;6239733;28;20048;-44
2022/04/02 16:14:33;;;;;;;0.10;0.10;;;22.50;26.50;;;;;;6255812;28;20400;-44
2022/04/02 16:17:34;;;;;;;0.10;0.10;;;22.50;26.50;;;;;;6236016;27;20074;-42
2022/04/02 16:20:36;;;;;;;0.10;0.10;;;22.50;26.40;;;;;;6280181;27;20509;-43
2022/04/02 16:23:38;;;;;;;0.10;0.10;;;22.40;26.40;;;;;;6272708;27;20449;-42
2022/04/02 16:26:50;;;;;;;0.10;0.10;;;22.50;26.40;;;;;;6257651;27;20153;-42
2022/04/02 16:29:55;;;;;;;0.10;0.10;;;22.30;26.30;;;;;;6274480;27;20043;-43
2022/04/02 16:32:58;;;;;;;0.10;0.10;;;22.50;26.40;;;;;;6261965;27;20044;-43